sensor_id;sensor_type;location;lat;lon;timestamp;P1;durP1;ratioP1;P2;durP2;ratioP2
46675;SDS011;32412;51.478;5.694;2022-09-03T00:01:28;7.38;;;4.05;;
46675;SDS011;32412;51.478;5.694;2022-09-03T00:04:09;5.40;;;3.83;;
46675;SDS011;32412;51.478;5.694;2022-09-03T00:06:48;5.07;;;3.60;;
46675;SDS011;32412;51.478;5.694;2022-09-03T00:09:24;11.18;;;3.90;;
46675;SDS011;32412;51.478;5.694;2022-09-03T00:14:40;7.05;;;3.70;;
46675;SDS011;32412;51.478;5.694;2022-09-03T00:17:14;6.40;;;3.53;;
46675;SDS011;32412;51.478;5.694;2022-09-03T00:19:54;7.72;;;3.20;;
46675;SDS011;32412;51.478;5.694;2022-09-03T00:22:28;6.68;;;3.40;;
46675;SDS011;32412;51.478;5.694;2022-09-03T00:25:04;6.30;;;3.92;;
46675;SDS011;32412;51.478;5.694;2022-09-03T00:27:36;5.65;;;3.08;;
46675;SDS011;32412;51.478;5.694;2022-09-03T00:30:14;6.78;;;3.10;;
46675;SDS011;32412;51.478;5.694;2022-09-03T00:32:45;3.95;;;2.97;;
46675;SDS011;32412;51.478;5.694;2022-09-03T00:35:17;3.22;;;2.70;;
46675;SDS011;32412;51.478;5.694;2022-09-03T00:37:50;6.47;;;2.78;;
46675;SDS011;32412;51.478;5.694;2022-09-03T00:43:16;7.18;;;2.90;;
46675;SDS011;32412;51.478;5.694;2022-09-03T00:56:50;4.10;;;3.00;;
46675;SDS011;32412;51.478;5.694;2022-09-03T01:07:27;3.78;;;2.90;;
46675;SDS011;32412;51.478;5.694;2022-09-03T01:10:08;3.28;;;2.85;;
46675;SDS011;32412;51.478;5.694;2022-09-03T01:13:03;10.80;;;2.90;;
46675;SDS011;32412;51.478;5.694;2022-09-03T01:15:47;8.77;;;2.75;;
46675;SDS011;32412;51.478;5.694;2022-09-03T01:18:34;6.55;;;2.55;;
46675;SDS011;32412;51.478;5.694;2022-09-03T01:29:55;6.90;;;2.88;;
46675;SDS011;32412;51.478;5.694;2022-09-03T01:32:47;3.25;;;2.58;;
46675;SDS011;32412;51.478;5.694;2022-09-03T01:35:26;4.47;;;3.15;;
46675;SDS011;32412;51.478;5.694;2022-09-03T01:40:53;4.30;;;2.75;;
46675;SDS011;32412;51.478;5.694;2022-09-03T01:43:58;4.28;;;2.72;;
46675;SDS011;32412;51.478;5.694;2022-09-03T01:46:27;5.60;;;2.45;;
46675;SDS011;32412;51.478;5.694;2022-09-03T01:49:05;6.97;;;2.92;;
46675;SDS011;32412;51.478;5.694;2022-09-03T01:51:45;5.32;;;2.40;;
46675;SDS011;32412;51.478;5.694;2022-09-03T01:59:28;3.33;;;2.50;;
46675;SDS011;32412;51.478;5.694;2022-09-03T02:02:02;3.80;;;2.22;;
46675;SDS011;32412;51.478;5.694;2022-09-03T02:04:52;5.20;;;2.70;;
46675;SDS011;32412;51.478;5.694;2022-09-03T02:07:35;5.05;;;2.45;;
46675;SDS011;32412;51.478;5.694;2022-09-03T02:10:05;5.20;;;2.70;;
46675;SDS011;32412;51.478;5.694;2022-09-03T02:12:33;3.53;;;2.88;;
46675;SDS011;32412;51.478;5.694;2022-09-03T02:15:04;4.82;;;2.85;;
46675;SDS011;32412;51.478;5.694;2022-09-03T02:17:34;2.60;;;2.40;;
46675;SDS011;32412;51.478;5.694;2022-09-03T02:20:05;6.20;;;2.92;;
46675;SDS011;32412;51.478;5.694;2022-09-03T02:22:36;5.38;;;2.75;;
46675;SDS011;32412;51.478;5.694;2022-09-03T02:25:03;4.60;;;2.65;;
46675;SDS011;32412;51.478;5.694;2022-09-03T02:27:29;3.30;;;2.38;;
46675;SDS011;32412;51.478;5.694;2022-09-03T02:29:56;8.82;;;2.65;;
46675;SDS011;32412;51.478;5.694;2022-09-03T02:32:22;5.72;;;2.65;;
46675;SDS011;32412;51.478;5.694;2022-09-03T02:34:48;7.28;;;2.40;;
46675;SDS011;32412;51.478;5.694;2022-09-03T02:37:14;3.42;;;2.47;;
46675;SDS011;32412;51.478;5.694;2022-09-03T02:39:42;5.28;;;2.60;;
46675;SDS011;32412;51.478;5.694;2022-09-03T02:42:09;3.33;;;2.53;;
46675;SDS011;32412;51.478;5.694;2022-09-03T02:44:59;4.43;;;2.45;;
46675;SDS011;32412;51.478;5.694;2022-09-03T02:47:28;7.22;;;2.65;;
46675;SDS011;32412;51.478;5.694;2022-09-03T02:49:56;2.63;;;2.22;;
46675;SDS011;32412;51.478;5.694;2022-09-03T02:52:22;5.22;;;2.50;;
46675;SDS011;32412;51.478;5.694;2022-09-03T02:54:48;5.75;;;2.47;;
46675;SDS011;32412;51.478;5.694;2022-09-03T02:57:15;3.25;;;2.40;;
46675;SDS011;32412;51.478;5.694;2022-09-03T02:59:41;3.53;;;1.92;;
46675;SDS011;32412;51.478;5.694;2022-09-03T03:02:11;3.78;;;2.63;;
46675;SDS011;32412;51.478;5.694;2022-09-03T03:04:38;4.40;;;2.30;;
46675;SDS011;32412;51.478;5.694;2022-09-03T03:07:04;4.97;;;2.83;;
46675;SDS011;32412;51.478;5.694;2022-09-03T03:09:30;3.05;;;2.40;;
46675;SDS011;32412;51.478;5.694;2022-09-03T03:11:56;2.75;;;2.25;;
46675;SDS011;32412;51.478;5.694;2022-09-03T03:14:22;3.05;;;2.25;;
46675;SDS011;32412;51.478;5.694;2022-09-03T03:16:48;4.00;;;2.28;;
46675;SDS011;32412;51.478;5.694;2022-09-03T03:19:14;3.45;;;2.13;;
46675;SDS011;32412;51.478;5.694;2022-09-03T03:21:40;4.43;;;2.25;;
46675;SDS011;32412;51.478;5.694;2022-09-03T03:24:06;2.83;;;2.20;;
46675;SDS011;32412;51.478;5.694;2022-09-03T03:26:32;3.33;;;2.60;;
46675;SDS011;32412;51.478;5.694;2022-09-03T03:28:58;2.65;;;2.30;;
46675;SDS011;32412;51.478;5.694;2022-09-03T03:31:25;6.70;;;2.15;;
46675;SDS011;32412;51.478;5.694;2022-09-03T03:33:52;3.13;;;2.08;;
46675;SDS011;32412;51.478;5.694;2022-09-03T03:36:18;2.60;;;2.25;;
46675;SDS011;32412;51.478;5.694;2022-09-03T03:38:45;3.75;;;2.30;;
46675;SDS011;32412;51.478;5.694;2022-09-03T03:43:41;3.25;;;2.15;;
46675;SDS011;32412;51.478;5.694;2022-09-03T03:46:07;2.15;;;1.90;;
46675;SDS011;32412;51.478;5.694;2022-09-03T03:48:33;2.58;;;2.10;;
46675;SDS011;32412;51.478;5.694;2022-09-03T03:51:02;3.42;;;2.13;;
46675;SDS011;32412;51.478;5.694;2022-09-03T03:53:32;3.10;;;2.10;;
46675;SDS011;32412;51.478;5.694;2022-09-03T03:55:59;5.53;;;2.08;;
46675;SDS011;32412;51.478;5.694;2022-09-03T03:58:29;3.35;;;2.03;;
46675;SDS011;32412;51.478;5.694;2022-09-03T04:01:02;2.30;;;1.80;;
46675;SDS011;32412;51.478;5.694;2022-09-03T04:03:29;5.60;;;2.23;;
46675;SDS011;32412;51.478;5.694;2022-09-03T04:05:55;5.90;;;2.47;;
46675;SDS011;32412;51.478;5.694;2022-09-03T04:08:23;6.63;;;2.22;;
46675;SDS011;32412;51.478;5.694;2022-09-03T04:10:49;3.40;;;2.22;;
46675;SDS011;32412;51.478;5.694;2022-09-03T04:13:15;5.43;;;2.10;;
46675;SDS011;32412;51.478;5.694;2022-09-03T04:15:41;4.80;;;2.28;;
46675;SDS011;32412;51.478;5.694;2022-09-03T04:18:07;5.05;;;2.33;;
46675;SDS011;32412;51.478;5.694;2022-09-03T04:20:36;2.45;;;2.00;;
46675;SDS011;32412;51.478;5.694;2022-09-03T04:23:03;3.47;;;1.90;;
46675;SDS011;32412;51.478;5.694;2022-09-03T04:25:29;2.75;;;2.17;;
46675;SDS011;32412;51.478;5.694;2022-09-03T04:27:56;2.15;;;1.95;;
46675;SDS011;32412;51.478;5.694;2022-09-03T04:30:21;7.00;;;2.17;;
46675;SDS011;32412;51.478;5.694;2022-09-03T04:32:50;4.00;;;2.00;;
46675;SDS011;32412;51.478;5.694;2022-09-03T04:35:23;3.47;;;2.00;;
46675;SDS011;32412;51.478;5.694;2022-09-03T04:37:57;5.93;;;2.10;;
46675;SDS011;32412;51.478;5.694;2022-09-03T04:40:23;4.32;;;2.08;;
46675;SDS011;32412;51.478;5.694;2022-09-03T04:42:48;4.75;;;2.10;;
46675;SDS011;32412;51.478;5.694;2022-09-03T04:45:15;5.18;;;2.08;;
46675;SDS011;32412;51.478;5.694;2022-09-03T04:47:43;3.28;;;2.40;;
46675;SDS011;32412;51.478;5.694;2022-09-03T04:50:11;5.60;;;2.20;;
46675;SDS011;32412;51.478;5.694;2022-09-03T04:52:37;4.85;;;1.95;;
46675;SDS011;32412;51.478;5.694;2022-09-03T04:55:03;4.53;;;1.92;;
46675;SDS011;32412;51.478;5.694;2022-09-03T04:57:29;7.55;;;2.33;;
46675;SDS011;32412;51.478;5.694;2022-09-03T05:00:02;2.13;;;1.92;;
46675;SDS011;32412;51.478;5.694;2022-09-03T05:02:28;3.95;;;2.38;;
46675;SDS011;32412;51.478;5.694;2022-09-03T05:04:54;5.05;;;2.05;;
46675;SDS011;32412;51.478;5.694;2022-09-03T05:07:19;3.13;;;2.03;;
46675;SDS011;32412;51.478;5.694;2022-09-03T05:09:45;2.90;;;1.70;;
46675;SDS011;32412;51.478;5.694;2022-09-03T05:12:11;2.53;;;2.08;;
46675;SDS011;32412;51.478;5.694;2022-09-03T05:14:37;2.33;;;1.73;;
46675;SDS011;32412;51.478;5.694;2022-09-03T05:17:02;5.43;;;2.10;;
46675;SDS011;32412;51.478;5.694;2022-09-03T05:19:28;2.28;;;1.80;;
46675;SDS011;32412;51.478;5.694;2022-09-03T05:21:54;4.68;;;2.03;;
46675;SDS011;32412;51.478;5.694;2022-09-03T05:24:20;4.78;;;2.35;;
46675;SDS011;32412;51.478;5.694;2022-09-03T05:26:46;4.80;;;2.30;;
46675;SDS011;32412;51.478;5.694;2022-09-03T05:29:12;1.92;;;1.75;;
46675;SDS011;32412;51.478;5.694;2022-09-03T05:31:40;6.85;;;2.38;;
46675;SDS011;32412;51.478;5.694;2022-09-03T05:34:06;4.63;;;2.30;;
46675;SDS011;32412;51.478;5.694;2022-09-03T05:36:35;6.00;;;2.38;;
46675;SDS011;32412;51.478;5.694;2022-09-03T05:39:02;6.20;;;2.53;;
46675;SDS011;32412;51.478;5.694;2022-09-03T05:41:29;3.25;;;2.00;;
46675;SDS011;32412;51.478;5.694;2022-09-03T05:43:56;5.47;;;2.00;;
46675;SDS011;32412;51.478;5.694;2022-09-03T05:46:26;6.63;;;2.25;;
46675;SDS011;32412;51.478;5.694;2022-09-03T05:49:02;8.70;;;2.63;;
46675;SDS011;32412;51.478;5.694;2022-09-03T05:51:29;5.18;;;2.08;;
46675;SDS011;32412;51.478;5.694;2022-09-03T05:53:56;6.28;;;2.00;;
46675;SDS011;32412;51.478;5.694;2022-09-03T05:56:23;6.57;;;2.58;;
46675;SDS011;32412;51.478;5.694;2022-09-03T05:58:51;6.97;;;2.72;;
46675;SDS011;32412;51.478;5.694;2022-09-03T06:01:22;10.30;;;2.60;;
46675;SDS011;32412;51.478;5.694;2022-09-03T06:04:02;5.65;;;3.05;;
46675;SDS011;32412;51.478;5.694;2022-09-03T06:06:33;4.40;;;2.85;;
46675;SDS011;32412;51.478;5.694;2022-09-03T06:09:04;5.95;;;3.10;;
46675;SDS011;32412;51.478;5.694;2022-09-03T06:11:32;6.10;;;3.38;;
46675;SDS011;32412;51.478;5.694;2022-09-03T06:13:59;7.47;;;3.33;;
46675;SDS011;32412;51.478;5.694;2022-09-03T06:16:29;11.90;;;4.00;;
46675;SDS011;32412;51.478;5.694;2022-09-03T06:18:55;11.43;;;4.60;;
46675;SDS011;32412;51.478;5.694;2022-09-03T06:21:21;9.32;;;4.10;;
46675;SDS011;32412;51.478;5.694;2022-09-03T06:23:51;10.38;;;4.85;;
46675;SDS011;32412;51.478;5.694;2022-09-03T06:26:18;14.95;;;6.43;;
46675;SDS011;32412;51.478;5.694;2022-09-03T06:28:45;13.93;;;6.80;;
46675;SDS011;32412;51.478;5.694;2022-09-03T06:31:13;12.48;;;6.95;;
46675;SDS011;32412;51.478;5.694;2022-09-03T06:33:40;17.92;;;6.97;;
46675;SDS011;32412;51.478;5.694;2022-09-03T06:36:07;14.95;;;6.63;;
46675;SDS011;32412;51.478;5.694;2022-09-03T06:38:38;20.75;;;9.10;;
46675;SDS011;32412;51.478;5.694;2022-09-03T06:41:08;25.13;;;9.07;;
46675;SDS011;32412;51.478;5.694;2022-09-03T06:43:37;18.38;;;8.20;;
46675;SDS011;32412;51.478;5.694;2022-09-03T06:46:11;23.30;;;8.73;;
46675;SDS011;32412;51.478;5.694;2022-09-03T06:48:42;22.00;;;8.90;;
46675;SDS011;32412;51.478;5.694;2022-09-03T06:51:08;24.63;;;11.05;;
46675;SDS011;32412;51.478;5.694;2022-09-03T06:53:37;25.60;;;10.95;;
46675;SDS011;32412;51.478;5.694;2022-09-03T06:56:05;27.55;;;10.80;;
46675;SDS011;32412;51.478;5.694;2022-09-03T06:58:37;25.05;;;11.23;;
46675;SDS011;32412;51.478;5.694;2022-09-03T07:01:06;25.52;;;12.05;;
46675;SDS011;32412;51.478;5.694;2022-09-03T07:03:34;29.15;;;12.20;;
46675;SDS011;32412;51.478;5.694;2022-09-03T07:06:05;29.90;;;13.18;;
46675;SDS011;32412;51.478;5.694;2022-09-03T07:08:34;28.08;;;11.57;;
46675;SDS011;32412;51.478;5.694;2022-09-03T07:11:00;30.58;;;11.98;;
46675;SDS011;32412;51.478;5.694;2022-09-03T07:13:43;32.45;;;12.98;;
46675;SDS011;32412;51.478;5.694;2022-09-03T07:16:14;30.90;;;13.45;;
46675;SDS011;32412;51.478;5.694;2022-09-03T07:18:42;28.30;;;12.15;;
46675;SDS011;32412;51.478;5.694;2022-09-03T07:21:09;29.40;;;12.50;;
46675;SDS011;32412;51.478;5.694;2022-09-03T07:23:37;23.73;;;11.95;;
46675;SDS011;32412;51.478;5.694;2022-09-03T07:26:04;26.35;;;11.38;;
46675;SDS011;32412;51.478;5.694;2022-09-03T07:28:33;25.23;;;10.63;;
46675;SDS011;32412;51.478;5.694;2022-09-03T07:31:02;20.77;;;10.20;;
46675;SDS011;32412;51.478;5.694;2022-09-03T07:33:29;23.83;;;9.25;;
46675;SDS011;32412;51.478;5.694;2022-09-03T07:35:55;18.98;;;7.75;;
46675;SDS011;32412;51.478;5.694;2022-09-03T07:38:25;14.80;;;6.15;;
46675;SDS011;32412;51.478;5.694;2022-09-03T07:40:58;11.60;;;5.00;;
46675;SDS011;32412;51.478;5.694;2022-09-03T07:43:27;7.40;;;3.50;;
46675;SDS011;32412;51.478;5.694;2022-09-03T07:45:54;7.63;;;3.13;;
46675;SDS011;32412;51.478;5.694;2022-09-03T07:51:43;6.20;;;2.47;;
46675;SDS011;32412;51.478;5.694;2022-09-03T07:54:10;7.80;;;2.65;;
46675;SDS011;32412;51.478;5.694;2022-09-03T07:56:36;4.50;;;2.42;;
46675;SDS011;32412;51.478;5.694;2022-09-03T07:59:03;8.93;;;3.20;;
46675;SDS011;32412;51.478;5.694;2022-09-03T08:01:29;10.80;;;4.22;;
46675;SDS011;32412;51.478;5.694;2022-09-03T08:03:56;4.25;;;2.85;;
46675;SDS011;32412;51.478;5.694;2022-09-03T08:06:23;9.88;;;2.88;;
46675;SDS011;32412;51.478;5.694;2022-09-03T08:08:55;5.55;;;2.20;;
46675;SDS011;32412;51.478;5.694;2022-09-03T08:11:23;8.52;;;2.45;;
46675;SDS011;32412;51.478;5.694;2022-09-03T08:13:57;7.13;;;1.92;;
46675;SDS011;32412;51.478;5.694;2022-09-03T08:16:27;5.13;;;2.58;;
46675;SDS011;32412;51.478;5.694;2022-09-03T08:18:54;4.05;;;2.00;;
46675;SDS011;32412;51.478;5.694;2022-09-03T08:21:20;9.23;;;2.65;;
46675;SDS011;32412;51.478;5.694;2022-09-03T08:23:48;2.33;;;1.42;;
46675;SDS011;32412;51.478;5.694;2022-09-03T08:26:15;7.13;;;1.73;;
46675;SDS011;32412;51.478;5.694;2022-09-03T08:28:41;1.90;;;1.45;;
46675;SDS011;32412;51.478;5.694;2022-09-03T08:31:08;4.97;;;1.70;;
46675;SDS011;32412;51.478;5.694;2022-09-03T08:33:39;3.05;;;1.48;;
46675;SDS011;32412;51.478;5.694;2022-09-03T08:36:11;2.25;;;1.30;;
46675;SDS011;32412;51.478;5.694;2022-09-03T08:38:47;3.78;;;1.42;;
46675;SDS011;32412;51.478;5.694;2022-09-03T08:44:21;2.58;;;1.25;;
46675;SDS011;32412;51.478;5.694;2022-09-03T08:50:03;1.50;;;1.25;;
46675;SDS011;32412;51.478;5.694;2022-09-03T08:52:52;5.28;;;1.10;;
46675;SDS011;32412;51.478;5.694;2022-09-03T08:55:35;4.25;;;1.38;;
46675;SDS011;32412;51.478;5.694;2022-09-03T08:58:18;4.85;;;1.70;;
46675;SDS011;32412;51.478;5.694;2022-09-03T09:00:57;2.28;;;1.10;;
46675;SDS011;32412;51.478;5.694;2022-09-03T09:09:20;3.78;;;1.10;;
46675;SDS011;32412;51.478;5.694;2022-09-03T09:14:55;5.20;;;1.40;;
46675;SDS011;32412;51.478;5.694;2022-09-03T09:17:40;3.78;;;1.40;;
46675;SDS011;32412;51.478;5.694;2022-09-03T09:20:35;1.52;;;1.30;;
46675;SDS011;32412;51.478;5.694;2022-09-03T09:23:28;2.47;;;1.35;;
46675;SDS011;32412;51.478;5.694;2022-09-03T09:25:56;2.13;;;1.45;;
46675;SDS011;32412;51.478;5.694;2022-09-03T09:28:29;8.25;;;1.85;;
46675;SDS011;32412;51.478;5.694;2022-09-03T09:30:59;2.97;;;1.33;;
46675;SDS011;32412;51.478;5.694;2022-09-03T09:33:30;4.57;;;1.15;;
46675;SDS011;32412;51.478;5.694;2022-09-03T09:35:58;4.57;;;1.17;;
46675;SDS011;32412;51.478;5.694;2022-09-03T09:38:32;4.75;;;1.40;;
46675;SDS011;32412;51.478;5.694;2022-09-03T09:41:19;2.45;;;1.20;;
46675;SDS011;32412;51.478;5.694;2022-09-03T09:43:58;2.10;;;1.40;;
46675;SDS011;32412;51.478;5.694;2022-09-03T09:46:34;3.90;;;1.15;;
46675;SDS011;32412;51.478;5.694;2022-09-03T09:49:07;4.07;;;1.30;;
46675;SDS011;32412;51.478;5.694;2022-09-03T09:52:08;6.18;;;1.40;;
46675;SDS011;32412;51.478;5.694;2022-09-03T09:54:36;5.53;;;1.80;;
46675;SDS011;32412;51.478;5.694;2022-09-03T09:57:03;3.17;;;1.40;;
46675;SDS011;32412;51.478;5.694;2022-09-03T09:59:41;3.55;;;1.85;;
46675;SDS011;32412;51.478;5.694;2022-09-03T10:04:38;7.43;;;2.70;;
46675;SDS011;32412;51.478;5.694;2022-09-03T10:07:20;9.40;;;3.50;;
46675;SDS011;32412;51.478;5.694;2022-09-03T10:10:06;8.65;;;3.90;;
46675;SDS011;32412;51.478;5.694;2022-09-03T10:12:44;9.27;;;5.30;;
46675;SDS011;32412;51.478;5.694;2022-09-03T10:15:28;8.70;;;3.65;;
46675;SDS011;32412;51.478;5.694;2022-09-03T10:18:10;4.50;;;1.48;;
46675;SDS011;32412;51.478;5.694;2022-09-03T10:20:48;4.00;;;1.30;;
46675;SDS011;32412;51.478;5.694;2022-09-03T10:23:24;4.40;;;2.15;;
46675;SDS011;32412;51.478;5.694;2022-09-03T10:25:59;4.00;;;2.65;;
46675;SDS011;32412;51.478;5.694;2022-09-03T10:28:31;7.05;;;3.10;;
46675;SDS011;32412;51.478;5.694;2022-09-03T10:37:13;8.45;;;4.63;;
46675;SDS011;32412;51.478;5.694;2022-09-03T10:39:59;12.02;;;5.80;;
46675;SDS011;32412;51.478;5.694;2022-09-03T10:42:38;11.23;;;6.28;;
46675;SDS011;32412;51.478;5.694;2022-09-03T10:50:52;12.30;;;5.78;;
46675;SDS011;32412;51.478;5.694;2022-09-03T10:53:34;8.65;;;4.68;;
46675;SDS011;32412;51.478;5.694;2022-09-03T10:56:23;7.80;;;3.40;;
46675;SDS011;32412;51.478;5.694;2022-09-03T11:04:59;5.82;;;1.80;;
46675;SDS011;32412;51.478;5.694;2022-09-03T11:07:43;8.90;;;3.97;;
46675;SDS011;32412;51.478;5.694;2022-09-03T11:15:35;11.63;;;7.78;;
46675;SDS011;32412;51.478;5.694;2022-09-03T11:20:58;8.35;;;5.47;;
46675;SDS011;32412;51.478;5.694;2022-09-03T11:23:29;11.15;;;6.30;;
46675;SDS011;32412;51.478;5.694;2022-09-03T11:26:01;7.68;;;3.47;;
46675;SDS011;32412;51.478;5.694;2022-09-03T11:34:00;4.30;;;1.73;;
46675;SDS011;32412;51.478;5.694;2022-09-03T11:36:38;4.93;;;2.20;;
46675;SDS011;32412;51.478;5.694;2022-09-03T11:39:21;7.20;;;2.33;;
46675;SDS011;32412;51.478;5.694;2022-09-03T11:42:01;5.82;;;2.88;;
46675;SDS011;32412;51.478;5.694;2022-09-03T11:44:44;4.88;;;2.50;;
46675;SDS011;32412;51.478;5.694;2022-09-03T11:49:50;4.07;;;2.20;;
46675;SDS011;32412;51.478;5.694;2022-09-03T11:52:27;4.75;;;2.70;;
46675;SDS011;32412;51.478;5.694;2022-09-03T12:01:08;7.20;;;2.00;;
46675;SDS011;32412;51.478;5.694;2022-09-03T12:10:08;3.35;;;2.10;;
46675;SDS011;32412;51.478;5.694;2022-09-03T12:12:56;7.50;;;2.25;;
46675;SDS011;32412;51.478;5.694;2022-09-03T12:18:33;10.27;;;3.85;;
46675;SDS011;32412;51.478;5.694;2022-09-03T12:21:03;8.25;;;4.43;;
46675;SDS011;32412;51.478;5.694;2022-09-03T12:23:47;10.70;;;5.18;;
46675;SDS011;32412;51.478;5.694;2022-09-03T12:26:22;10.55;;;5.03;;
46675;SDS011;32412;51.478;5.694;2022-09-03T12:31:55;6.70;;;4.32;;
46675;SDS011;32412;51.478;5.694;2022-09-03T12:34:31;7.35;;;3.72;;
46675;SDS011;32412;51.478;5.694;2022-09-03T12:37:02;7.28;;;3.38;;
46675;SDS011;32412;51.478;5.694;2022-09-03T12:39:33;8.77;;;3.75;;
46675;SDS011;32412;51.478;5.694;2022-09-03T12:42:25;10.93;;;3.47;;
46675;SDS011;32412;51.478;5.694;2022-09-03T12:45:16;5.85;;;3.60;;
46675;SDS011;32412;51.478;5.694;2022-09-03T12:47:54;15.05;;;4.30;;
46675;SDS011;32412;51.478;5.694;2022-09-03T12:50:23;7.47;;;3.63;;
46675;SDS011;32412;51.478;5.694;2022-09-03T12:52:53;3.90;;;2.75;;
46675;SDS011;32412;51.478;5.694;2022-09-03T12:59:02;8.50;;;3.78;;
46675;SDS011;32412;51.478;5.694;2022-09-03T13:01:50;5.05;;;3.75;;
46675;SDS011;32412;51.478;5.694;2022-09-03T13:04:40;6.20;;;3.78;;
46675;SDS011;32412;51.478;5.694;2022-09-03T13:07:11;9.85;;;4.28;;
46675;SDS011;32412;51.478;5.694;2022-09-03T13:09:54;9.90;;;4.05;;
46675;SDS011;32412;51.478;5.694;2022-09-03T13:12:29;7.45;;;3.60;;
46675;SDS011;32412;51.478;5.694;2022-09-03T13:15:07;9.25;;;2.40;;
46675;SDS011;32412;51.478;5.694;2022-09-03T13:17:46;3.88;;;2.20;;
46675;SDS011;32412;51.478;5.694;2022-09-03T13:20:31;3.72;;;2.25;;
46675;SDS011;32412;51.478;5.694;2022-09-03T13:31:35;4.70;;;1.90;;
46675;SDS011;32412;51.478;5.694;2022-09-03T13:37:05;2.92;;;2.08;;
46675;SDS011;32412;51.478;5.694;2022-09-03T13:39:56;3.08;;;1.92;;
46675;SDS011;32412;51.478;5.694;2022-09-03T13:45:07;4.22;;;2.10;;
46675;SDS011;32412;51.478;5.694;2022-09-03T13:48:06;4.95;;;2.13;;
46675;SDS011;32412;51.478;5.694;2022-09-03T13:51:11;2.72;;;1.75;;
46675;SDS011;32412;51.478;5.694;2022-09-03T14:00:09;4.68;;;1.92;;
46675;SDS011;32412;51.478;5.694;2022-09-03T14:08:32;3.30;;;1.90;;
46675;SDS011;32412;51.478;5.694;2022-09-03T14:22:21;3.70;;;2.10;;
46675;SDS011;32412;51.478;5.694;2022-09-03T14:27:40;1.77;;;1.67;;
46675;SDS011;32412;51.478;5.694;2022-09-03T14:30:16;7.47;;;4.28;;
46675;SDS011;32412;51.478;5.694;2022-09-03T14:46:49;2.65;;;1.90;;
46675;SDS011;32412;51.478;5.694;2022-09-03T14:56:37;3.20;;;2.90;;
46675;SDS011;32412;51.478;5.694;2022-09-03T14:59:21;2.10;;;1.90;;
46675;SDS011;32412;51.478;5.694;2022-09-03T15:02:03;2.42;;;2.20;;
46675;SDS011;32412;51.478;5.694;2022-09-03T15:04:56;4.95;;;4.38;;
46675;SDS011;32412;51.478;5.694;2022-09-03T15:07:48;3.60;;;2.80;;
46675;SDS011;32412;51.478;5.694;2022-09-03T15:13:16;6.22;;;3.17;;
46675;SDS011;32412;51.478;5.694;2022-09-03T15:18:29;6.32;;;2.53;;
46675;SDS011;32412;51.478;5.694;2022-09-03T15:21:13;4.35;;;2.78;;
46675;SDS011;32412;51.478;5.694;2022-09-03T15:29:36;2.40;;;2.20;;
46675;SDS011;32412;51.478;5.694;2022-09-03T15:34:54;5.07;;;2.30;;
46675;SDS011;32412;51.478;5.694;2022-09-03T15:37:36;3.58;;;2.20;;
46675;SDS011;32412;51.478;5.694;2022-09-03T15:42:57;6.88;;;2.50;;
46675;SDS011;32412;51.478;5.694;2022-09-03T15:45:37;5.30;;;2.03;;
46675;SDS011;32412;51.478;5.694;2022-09-03T15:50:54;3.80;;;2.30;;
46675;SDS011;32412;51.478;5.694;2022-09-03T15:53:38;9.27;;;2.30;;
46675;SDS011;32412;51.478;5.694;2022-09-03T15:56:21;5.47;;;2.70;;
46675;SDS011;32412;51.478;5.694;2022-09-03T16:01:22;4.05;;;2.10;;
46675;SDS011;32412;51.478;5.694;2022-09-03T16:23:02;2.85;;;2.00;;
46675;SDS011;32412;51.478;5.694;2022-09-03T16:25:44;2.83;;;2.30;;
46675;SDS011;32412;51.478;5.694;2022-09-03T16:28:29;3.70;;;2.10;;
46675;SDS011;32412;51.478;5.694;2022-09-03T16:33:55;3.97;;;2.40;;
46675;SDS011;32412;51.478;5.694;2022-09-03T16:55:33;4.07;;;2.80;;
46675;SDS011;32412;51.478;5.694;2022-09-03T17:40:40;4.93;;;2.55;;
46675;SDS011;32412;51.478;5.694;2022-09-03T17:46:30;4.70;;;2.60;;
46675;SDS011;32412;51.478;5.694;2022-09-03T17:49:00;3.75;;;2.17;;
46675;SDS011;32412;51.478;5.694;2022-09-03T17:56:59;5.57;;;3.05;;
46675;SDS011;32412;51.478;5.694;2022-09-03T18:02:22;4.22;;;2.78;;
46675;SDS011;32412;51.478;5.694;2022-09-03T18:10:29;3.35;;;2.20;;
46675;SDS011;32412;51.478;5.694;2022-09-03T18:15:58;9.68;;;3.40;;
46675;SDS011;32412;51.478;5.694;2022-09-03T18:18:31;5.38;;;2.60;;
46675;SDS011;32412;51.478;5.694;2022-09-03T18:21:02;5.03;;;3.70;;
46675;SDS011;32412;51.478;5.694;2022-09-03T18:26:36;3.75;;;3.10;;
46675;SDS011;32412;51.478;5.694;2022-09-03T18:29:36;5.22;;;2.90;;
46675;SDS011;32412;51.478;5.694;2022-09-03T18:32:28;5.00;;;2.55;;
46675;SDS011;32412;51.478;5.694;2022-09-03T18:35:12;3.25;;;2.88;;
46675;SDS011;32412;51.478;5.694;2022-09-03T18:37:58;4.80;;;3.33;;
46675;SDS011;32412;51.478;5.694;2022-09-03T18:40:50;5.18;;;2.90;;
46675;SDS011;32412;51.478;5.694;2022-09-03T18:50:21;5.90;;;3.50;;
46675;SDS011;32412;51.478;5.694;2022-09-03T18:52:54;4.32;;;2.63;;
46675;SDS011;32412;51.478;5.694;2022-09-03T18:55:55;3.47;;;2.90;;
46675;SDS011;32412;51.478;5.694;2022-09-03T18:59:09;6.85;;;3.22;;
46675;SDS011;32412;51.478;5.694;2022-09-03T19:02:10;4.95;;;2.53;;
46675;SDS011;32412;51.478;5.694;2022-09-03T19:08:16;3.40;;;3.10;;
46675;SDS011;32412;51.478;5.694;2022-09-03T19:17:25;5.63;;;3.80;;
46675;SDS011;32412;51.478;5.694;2022-09-03T19:20:30;4.78;;;3.40;;
46675;SDS011;32412;51.478;5.694;2022-09-03T19:23:18;6.68;;;3.70;;
46675;SDS011;32412;51.478;5.694;2022-09-03T19:26:17;5.10;;;3.25;;
46675;SDS011;32412;51.478;5.694;2022-09-03T19:29:34;6.95;;;3.63;;
46675;SDS011;32412;51.478;5.694;2022-09-03T19:32:24;8.25;;;4.05;;
46675;SDS011;32412;51.478;5.694;2022-09-03T19:35:41;4.97;;;4.10;;
46675;SDS011;32412;51.478;5.694;2022-09-03T19:39:26;7.45;;;4.18;;
46675;SDS011;32412;51.478;5.694;2022-09-03T19:43:10;7.57;;;5.13;;
46675;SDS011;32412;51.478;5.694;2022-09-03T19:49:23;9.83;;;4.13;;
46675;SDS011;32412;51.478;5.694;2022-09-03T19:55:02;15.85;;;9.50;;
46675;SDS011;32412;51.478;5.694;2022-09-03T19:57:47;18.67;;;7.78;;
46675;SDS011;32412;51.478;5.694;2022-09-03T20:00:36;16.85;;;10.88;;
46675;SDS011;32412;51.478;5.694;2022-09-03T20:06:07;22.42;;;14.95;;
46675;SDS011;32412;51.478;5.694;2022-09-03T20:08:52;8.57;;;5.88;;
46675;SDS011;32412;51.478;5.694;2022-09-03T20:11:42;12.93;;;6.28;;
46675;SDS011;32412;51.478;5.694;2022-09-03T20:14:10;11.90;;;6.20;;
46675;SDS011;32412;51.478;5.694;2022-09-03T20:22:11;13.52;;;6.97;;
46675;SDS011;32412;51.478;5.694;2022-09-03T20:30:48;11.18;;;6.55;;
46675;SDS011;32412;51.478;5.694;2022-09-03T20:39:19;10.85;;;6.90;;
46675;SDS011;32412;51.478;5.694;2022-09-03T20:42:04;9.52;;;6.40;;
46675;SDS011;32412;51.478;5.694;2022-09-03T20:44:59;7.22;;;6.50;;
46675;SDS011;32412;51.478;5.694;2022-09-03T20:47:39;10.05;;;6.75;;
46675;SDS011;32412;51.478;5.694;2022-09-03T20:55:33;9.95;;;6.43;;
46675;SDS011;32412;51.478;5.694;2022-09-03T21:00:51;9.75;;;7.07;;
46675;SDS011;32412;51.478;5.694;2022-09-03T21:06:28;10.30;;;7.30;;
46675;SDS011;32412;51.478;5.694;2022-09-03T21:12:06;9.60;;;6.70;;
46675;SDS011;32412;51.478;5.694;2022-09-03T21:25:31;8.48;;;6.10;;
46675;SDS011;32412;51.478;5.694;2022-09-03T21:30:51;9.77;;;6.85;;
46675;SDS011;32412;51.478;5.694;2022-09-03T21:33:23;13.57;;;6.95;;
46675;SDS011;32412;51.478;5.694;2022-09-03T21:35:53;9.05;;;7.70;;
46675;SDS011;32412;51.478;5.694;2022-09-03T21:38:38;6.65;;;6.00;;
46675;SDS011;32412;51.478;5.694;2022-09-03T21:41:17;7.35;;;6.55;;
46675;SDS011;32412;51.478;5.694;2022-09-03T21:43:57;9.90;;;6.32;;
46675;SDS011;32412;51.478;5.694;2022-09-03T21:49:13;9.52;;;6.40;;
46675;SDS011;32412;51.478;5.694;2022-09-03T21:54:36;7.72;;;6.82;;
46675;SDS011;32412;51.478;5.694;2022-09-03T21:57:14;9.25;;;6.72;;
46675;SDS011;32412;51.478;5.694;2022-09-03T22:02:27;9.77;;;6.38;;